createdAt,value
2023-02-25T04:01:58.060Z,7.00
2023-02-25T04:04:26.129Z,12.27
2023-02-25T04:06:55.235Z,10.03
2023-02-25T04:09:23.048Z,8.93
2023-02-25T04:11:51.014Z,9.37
2023-02-25T04:14:18.892Z,10.57
2023-02-25T04:16:47.719Z,7.73
2023-02-25T04:19:16.960Z,12.00
2023-02-25T04:21:45.108Z,7.90
2023-02-25T04:24:12.937Z,7.63
2023-02-25T04:26:40.929Z,8.63
2023-02-25T04:29:08.848Z,9.13
2023-02-25T04:31:37.080Z,11.03
2023-02-25T04:34:05.017Z,8.47
2023-02-25T04:36:36.546Z,6.93
2023-02-25T04:39:06.484Z,7.43
2023-02-25T04:41:36.523Z,9.03
2023-02-25T04:44:05.964Z,7.53
2023-02-25T04:46:36.742Z,10.40
2023-02-25T04:49:05.062Z,9.40
2023-02-25T04:51:34.855Z,7.10
2023-02-25T04:54:03.048Z,9.90
2023-02-25T04:56:31.123Z,10.67
2023-02-25T04:58:59.320Z,6.70
2023-02-25T05:01:27.200Z,13.60
2023-02-25T05:03:56.818Z,7.50
2023-02-25T05:06:25.533Z,8.37
2023-02-25T05:08:55.002Z,8.20
2023-02-25T05:11:22.905Z,8.43
2023-02-25T05:13:51.319Z,10.30
2023-02-25T05:16:20.298Z,8.73
2023-02-25T05:18:48.898Z,11.43
2023-02-25T05:21:17.899Z,6.93
2023-02-25T05:23:47.013Z,13.17
2023-02-25T05:26:17.558Z,11.03
2023-02-25T05:28:45.632Z,12.03
2023-02-25T05:31:13.994Z,9.07
2023-02-25T05:33:42.263Z,8.33
2023-02-25T05:36:11.706Z,9.33
2023-02-25T05:38:40.667Z,13.03
2023-02-25T05:41:09.388Z,7.03
2023-02-25T05:43:40.274Z,6.13
2023-02-25T05:46:11.823Z,10.23
2023-02-25T05:48:40.598Z,9.43
2023-02-25T05:51:09.624Z,9.27
2023-02-25T05:53:38.264Z,10.17
2023-02-25T05:56:07.253Z,7.20
2023-02-25T05:58:36.001Z,9.73
2023-02-25T06:01:11.303Z,6.37
2023-02-25T06:03:39.178Z,5.93
2023-02-25T06:06:08.306Z,8.73
2023-02-25T06:08:36.500Z,9.47
2023-02-25T06:11:06.942Z,7.70
2023-02-25T06:13:35.508Z,8.53
2023-02-25T06:16:04.946Z,13.07
2023-02-25T06:18:37.031Z,8.53
2023-02-25T06:21:06.867Z,9.63
2023-02-25T06:23:34.991Z,11.67
2023-02-25T06:26:03.535Z,7.53
2023-02-25T06:28:31.660Z,6.60
2023-02-25T06:30:59.546Z,7.57
2023-02-25T06:33:30.794Z,15.30
2023-02-25T06:36:00.355Z,6.40
2023-02-25T06:38:28.319Z,9.97
2023-02-25T06:40:56.159Z,8.30
2023-02-25T06:43:24.190Z,9.97
2023-02-25T06:45:52.164Z,10.57
2023-02-25T06:48:20.084Z,11.65
2023-02-25T06:50:47.910Z,6.83
2023-02-25T06:53:17.152Z,8.00
2023-02-25T06:55:44.998Z,8.63
2023-02-25T06:58:14.786Z,7.60
2023-02-25T07:00:43.497Z,6.87
2023-02-25T07:03:12.703Z,8.93
2023-02-25T07:05:40.639Z,4.43
2023-02-25T07:08:08.674Z,9.80
2023-02-25T07:10:40.501Z,7.90
2023-02-25T07:13:08.392Z,8.57
2023-02-25T07:15:36.789Z,8.67
2023-02-25T07:18:05.090Z,6.83
2023-02-25T07:20:33.049Z,5.97
2023-02-25T07:23:03.709Z,6.73
2023-02-25T07:25:32.079Z,6.80
2023-02-25T07:28:01.335Z,4.53
2023-02-25T07:30:29.236Z,8.30
2023-02-25T07:32:57.365Z,8.37
2023-02-25T07:35:25.542Z,6.57
2023-02-25T07:37:53.362Z,5.47
2023-02-25T07:40:21.333Z,12.03
2023-02-25T07:42:49.154Z,10.67
2023-02-25T07:45:18.757Z,5.47
2023-02-25T07:47:46.599Z,10.60
2023-02-25T07:50:14.447Z,14.43
2023-02-25T07:52:42.264Z,11.97
2023-02-25T07:55:11.136Z,6.67
2023-02-25T07:57:38.942Z,8.20
2023-02-25T08:00:10.284Z,9.43
2023-02-25T08:02:42.661Z,7.47
2023-02-25T08:05:11.264Z,9.63
2023-02-25T08:07:39.396Z,10.37
2023-02-25T08:10:07.819Z,7.43
2023-02-25T08:12:35.662Z,9.00
2023-02-25T08:15:03.490Z,7.50
2023-02-25T08:17:35.215Z,7.00
2023-02-25T08:20:06.223Z,9.03
2023-02-25T08:22:34.033Z,7.13
2023-02-25T08:25:01.888Z,7.20
2023-02-25T08:27:30.644Z,5.83
2023-02-25T08:29:58.854Z,8.40
2023-02-25T08:32:27.500Z,9.77
2023-02-25T08:34:56.496Z,11.27
2023-02-25T08:37:26.784Z,11.98
2023-02-25T08:39:56.680Z,7.37
2023-02-25T08:42:24.865Z,7.07
2023-02-25T08:44:52.770Z,4.70
2023-02-25T08:47:21.166Z,5.93
2023-02-25T08:49:49.014Z,6.57
2023-02-25T08:52:16.812Z,6.97
2023-02-25T08:54:46.396Z,8.80
2023-02-25T08:57:14.236Z,7.53
2023-02-25T08:59:42.561Z,10.67
2023-02-25T09:02:15.068Z,10.33
2023-02-25T09:04:42.987Z,6.63
2023-02-25T09:07:13.824Z,11.70
2023-02-25T09:09:41.645Z,8.80
2023-02-25T09:12:11.288Z,9.40
2023-02-25T09:14:39.330Z,7.77
2023-02-25T09:17:08.247Z,11.23
2023-02-25T09:19:38.736Z,11.83
2023-02-25T09:22:07.410Z,12.97
2023-02-25T09:24:35.369Z,11.47
2023-02-25T09:27:07.493Z,9.17
2023-02-25T09:29:37.919Z,9.20
2023-02-25T09:32:06.464Z,9.20
2023-02-25T09:34:34.741Z,8.97
2023-02-25T09:37:04.375Z,8.00
2023-02-25T09:39:32.423Z,10.43
2023-02-25T09:42:09.292Z,10.33
2023-02-25T09:44:42.738Z,10.90
2023-02-25T09:47:19.258Z,9.27
2023-02-25T09:49:52.702Z,12.20
2023-02-25T09:52:24.865Z,12.17
2023-02-25T09:54:57.726Z,14.80
2023-02-25T09:57:25.618Z,11.57
2023-02-25T09:59:54.956Z,10.37
2023-02-25T10:02:31.369Z,11.50
2023-02-25T10:05:14.732Z,9.93
2023-02-25T10:07:53.867Z,11.05
2023-02-25T10:10:27.926Z,9.50
2023-02-25T10:13:01.549Z,6.33
2023-02-25T10:15:51.988Z,9.50
2023-02-25T10:18:30.115Z,14.30
2023-02-25T10:21:08.668Z,9.93
2023-02-25T10:23:56.562Z,5.43
2023-02-25T10:26:27.225Z,7.13
2023-02-25T10:29:00.292Z,5.67
2023-02-25T10:31:32.001Z,6.33
2023-02-25T10:34:13.590Z,8.68
2023-02-25T10:36:47.094Z,7.70
2023-02-25T10:39:14.915Z,9.43
2023-02-25T10:41:42.846Z,7.07
2023-02-25T10:44:13.275Z,8.05
2023-02-25T10:46:47.812Z,9.60
2023-02-25T10:49:20.869Z,8.93
2023-02-25T10:51:58.965Z,13.17
2023-02-25T10:54:28.763Z,6.37
2023-02-25T10:56:58.668Z,6.07
2023-02-25T10:59:31.500Z,7.00
2023-02-25T11:02:01.998Z,6.47
2023-02-25T11:04:34.000Z,5.10
2023-02-25T11:07:02.142Z,7.23
2023-02-25T11:09:36.872Z,6.20
2023-02-25T11:12:17.873Z,5.47
2023-02-25T11:14:45.726Z,5.27
2023-02-25T11:17:20.117Z,4.60
2023-02-25T11:19:50.442Z,6.67
2023-02-25T11:22:20.280Z,7.10
2023-02-25T11:24:57.190Z,7.13
2023-02-25T11:27:37.898Z,5.47
2023-02-25T11:30:16.748Z,5.80
2023-02-25T11:32:49.749Z,4.67
2023-02-25T11:35:22.833Z,4.13
2023-02-25T11:37:50.662Z,6.73
2023-02-25T11:40:25.759Z,5.67
2023-02-25T11:43:17.029Z,6.53
2023-02-25T11:46:01.158Z,8.27
2023-02-25T11:48:38.020Z,7.30
2023-02-25T11:51:15.447Z,7.45
2023-02-25T11:54:04.476Z,9.25
2023-02-25T11:56:35.684Z,7.05
2023-02-25T11:59:19.227Z,5.90
2023-02-25T12:02:03.154Z,4.50
2023-02-25T12:05:09.727Z,7.10
2023-02-25T12:08:12.889Z,7.57
2023-02-25T12:11:29.317Z,5.00
2023-02-25T12:14:27.955Z,5.57
2023-02-25T12:17:25.433Z,6.50
2023-02-25T12:20:41.642Z,6.70
2023-02-25T12:24:01.422Z,1.93
2023-02-25T12:26:41.618Z,1.03
2023-02-25T12:29:18.658Z,0.60
2023-02-25T12:32:04.459Z,1.60
2023-02-25T12:34:55.991Z,1.07
2023-02-25T12:37:39.899Z,0.60
2023-02-25T12:40:46.817Z,0.50
2023-02-25T12:43:26.965Z,1.30
2023-02-25T12:46:27.274Z,1.00
2023-02-25T12:49:30.262Z,1.90
2023-02-25T12:52:09.303Z,2.10
2023-02-25T12:55:03.528Z,3.50
2023-02-25T12:57:48.905Z,1.90
2023-02-25T13:00:54.202Z,3.00
2023-02-25T13:03:46.762Z,3.67
2023-02-25T13:06:29.041Z,2.50
2023-02-25T13:09:14.751Z,4.53
2023-02-25T13:12:11.005Z,4.20
2023-02-25T13:14:55.754Z,3.57
2023-02-25T13:17:36.360Z,5.03
2023-02-25T13:20:29.726Z,6.00
2023-02-25T13:23:13.135Z,2.30
2023-02-25T13:25:59.600Z,3.07
2023-02-25T13:28:41.635Z,2.23
2023-02-25T13:31:19.072Z,4.20
2023-02-25T13:34:11.677Z,6.03
2023-02-25T13:37:21.037Z,3.73
2023-02-25T13:40:06.290Z,4.17
2023-02-25T13:42:58.643Z,4.90
2023-02-25T13:45:47.447Z,11.87
2023-02-25T13:48:51.157Z,3.40
2023-02-25T13:51:34.304Z,2.53
2023-02-25T13:54:15.410Z,4.77
2023-02-25T13:56:56.293Z,3.13
2023-02-25T13:59:42.612Z,8.53
2023-02-25T14:03:04.915Z,4.13
2023-02-25T14:05:51.456Z,6.87
2023-02-25T14:08:44.416Z,3.77
2023-02-25T14:11:30.152Z,2.97
2023-02-25T14:14:36.667Z,4.13
2023-02-25T14:17:18.545Z,3.40
2023-02-25T14:20:00.522Z,2.93
2023-02-25T14:22:37.814Z,2.10
2023-02-25T14:25:19.503Z,4.35
2023-02-25T14:27:58.425Z,2.43
2023-02-25T14:30:35.804Z,3.27
2023-02-25T14:33:25.212Z,2.23
2023-02-25T14:36:26.645Z,2.33
2023-02-25T14:39:16.306Z,1.20
2023-02-25T14:41:57.064Z,1.27
2023-02-25T14:44:31.937Z,3.55
2023-02-25T14:47:06.102Z,2.13
2023-02-25T14:49:40.831Z,2.47
2023-02-25T14:52:32.549Z,3.08
2023-02-25T14:55:34.324Z,1.52
2023-02-25T14:58:33.888Z,1.48
2023-02-25T15:01:29.913Z,2.58
2023-02-25T15:04:40.023Z,1.90
2023-02-25T15:07:18.046Z,2.38
2023-02-25T15:10:29.858Z,3.85
2023-02-25T15:13:27.877Z,1.67
2023-02-25T15:16:21.699Z,2.67
2023-02-25T15:19:39.797Z,4.43
2023-02-25T15:22:24.901Z,2.97
2023-02-25T15:24:54.398Z,2.08
2023-02-25T15:27:56.798Z,3.10
2023-02-25T15:30:28.750Z,4.55
2023-02-25T15:33:15.189Z,2.80
2023-02-25T15:36:03.215Z,2.60
2023-02-25T15:38:44.265Z,6.97
2023-02-25T15:41:41.329Z,5.93
2023-02-25T15:44:33.252Z,4.93
2023-02-25T15:47:30.479Z,4.95
2023-02-25T15:49:59.285Z,6.97
2023-02-25T15:52:52.932Z,4.85
2023-02-25T15:55:32.027Z,10.07
2023-02-25T15:58:00.173Z,4.60
2023-02-25T16:00:51.888Z,4.07
2023-02-25T16:03:39.291Z,4.07
2023-02-25T16:06:11.815Z,3.20
2023-02-25T16:08:45.466Z,3.90
2023-02-25T16:11:24.156Z,3.00
2023-02-25T16:13:53.286Z,3.37
2023-02-25T16:16:22.782Z,2.90
2023-02-25T16:18:53.920Z,5.00
2023-02-25T16:21:26.333Z,4.07
2023-02-25T16:23:55.465Z,3.50
2023-02-25T16:26:42.554Z,4.97
2023-02-25T16:29:19.388Z,5.00
2023-02-25T16:31:55.352Z,5.27
2023-02-25T16:34:30.004Z,4.43
2023-02-25T16:37:08.373Z,5.70
2023-02-25T16:39:37.986Z,6.10
2023-02-25T16:42:10.828Z,5.40
2023-02-25T16:44:40.622Z,3.27
2023-02-25T16:47:22.764Z,4.50
2023-02-25T16:49:53.974Z,8.53
2023-02-25T16:52:25.334Z,12.30
2023-02-25T16:54:57.566Z,22.40
2023-02-25T16:57:26.210Z,4.97
2023-02-25T17:00:17.849Z,3.20
2023-02-25T17:02:48.508Z,4.17
2023-02-25T17:05:26.904Z,3.07
2023-02-25T17:07:56.902Z,3.47
2023-02-25T17:10:27.866Z,2.43
2023-02-25T17:12:56.424Z,2.03
2023-02-25T17:15:27.412Z,3.53
2023-02-25T17:18:02.039Z,2.10
2023-02-25T17:20:31.302Z,2.93
2023-02-25T17:23:03.891Z,4.63
2023-02-25T17:25:38.205Z,4.47
2023-02-25T17:28:08.599Z,2.00
2023-02-25T17:30:40.389Z,3.03
2023-02-25T17:33:18.909Z,2.10
2023-02-25T17:35:49.111Z,1.60
2023-02-25T17:38:20.748Z,1.90
2023-02-25T17:40:49.379Z,1.63
2023-02-25T17:43:20.725Z,2.97
2023-02-25T17:45:52.763Z,2.20
2023-02-25T17:48:23.664Z,2.00
2023-02-25T17:50:59.899Z,3.20
2023-02-25T17:53:38.163Z,1.73
2023-02-25T17:56:22.662Z,3.40
2023-02-25T17:58:51.584Z,2.67
2023-02-25T18:01:23.692Z,6.63
2023-02-25T18:03:52.925Z,2.63
2023-02-25T18:06:42.891Z,5.23
2023-02-25T18:09:29.804Z,3.83
2023-02-25T18:12:00.284Z,3.17
2023-02-25T18:14:34.304Z,9.83
2023-02-25T18:17:03.450Z,16.83
2023-02-25T18:19:37.495Z,2.70
2023-02-25T18:22:09.784Z,2.93
2023-02-25T18:24:38.772Z,3.43
2023-02-25T18:27:24.501Z,1.90
2023-02-25T18:29:52.419Z,4.00
2023-02-25T18:32:20.304Z,4.57
2023-02-25T18:34:48.560Z,2.97
2023-02-25T18:37:20.295Z,1.87
2023-02-25T18:39:49.160Z,2.40
2023-02-25T18:42:18.540Z,4.63
2023-02-25T18:44:47.836Z,3.43
2023-02-25T18:47:16.684Z,1.87
2023-02-25T18:49:45.546Z,1.80
2023-02-25T18:52:20.757Z,2.63
2023-02-25T18:54:48.969Z,1.80
2023-02-25T18:57:24.092Z,2.00
2023-02-25T18:59:52.483Z,1.10
2023-02-25T19:02:32.518Z,1.60
2023-02-25T19:05:01.661Z,1.57
2023-02-25T19:07:33.641Z,2.37
2023-02-25T19:10:01.745Z,3.67
2023-02-25T19:12:32.445Z,8.87
2023-02-25T19:15:02.867Z,1.93
2023-02-25T19:17:31.233Z,2.93
2023-02-25T19:20:02.119Z,2.63
2023-02-25T19:22:31.313Z,2.83
2023-02-25T19:24:59.193Z,1.67
2023-02-25T19:27:28.900Z,2.43
2023-02-25T19:29:59.330Z,3.33
2023-02-25T19:32:27.839Z,2.03
2023-02-25T19:34:55.701Z,1.77
2023-02-25T19:37:23.852Z,2.97
2023-02-25T19:39:53.072Z,3.03
2023-02-25T19:42:20.998Z,1.77
2023-02-25T19:44:48.799Z,2.70
2023-02-25T19:47:16.702Z,3.23
2023-02-25T19:49:44.764Z,1.77
2023-02-25T19:52:12.633Z,3.87
2023-02-25T19:54:41.012Z,3.13
2023-02-25T19:57:11.513Z,2.90
2023-02-25T19:59:39.343Z,2.00
2023-02-25T20:02:07.635Z,1.67
2023-02-25T20:04:35.625Z,2.80
2023-02-25T20:07:03.458Z,2.37
2023-02-25T20:09:31.334Z,1.83
2023-02-25T20:11:59.641Z,3.23
2023-02-25T20:14:28.849Z,3.30
2023-02-25T20:16:57.117Z,2.50
2023-02-25T20:19:27.775Z,1.40
2023-02-25T20:21:55.658Z,1.30
2023-02-25T20:24:23.554Z,2.20
2023-02-25T20:26:51.522Z,1.47
2023-02-25T20:29:19.511Z,4.30
2023-02-25T20:31:49.066Z,2.37
2023-02-25T20:34:19.429Z,3.20
2023-02-25T20:36:52.826Z,2.77
2023-02-25T20:39:47.851Z,3.47
2023-02-25T20:42:17.572Z,1.53
2023-02-25T20:44:45.828Z,1.77
2023-02-25T20:47:19.658Z,3.03
2023-02-25T20:49:48.209Z,1.67
2023-02-25T20:52:17.293Z,2.93
2023-02-25T20:54:45.275Z,1.67
2023-02-25T20:57:15.123Z,1.90
2023-02-25T20:59:43.186Z,1.77
2023-02-25T21:02:11.738Z,1.00
2023-02-25T21:04:40.907Z,1.53
2023-02-25T21:07:08.792Z,2.50
2023-02-25T21:09:36.676Z,2.80
2023-02-25T21:12:05.021Z,3.20
2023-02-25T21:14:32.930Z,1.73
2023-02-25T21:17:02.010Z,1.90
2023-02-25T21:19:29.874Z,1.90
2023-02-25T21:21:59.072Z,3.13
2023-02-25T21:24:28.993Z,8.60
2023-02-25T21:26:57.607Z,4.00
2023-02-25T21:29:25.436Z,5.93
2023-02-25T21:31:53.379Z,2.60
2023-02-25T21:34:21.701Z,2.50
2023-02-25T21:36:49.554Z,4.23
2023-02-25T21:39:18.853Z,5.77
2023-02-25T21:41:46.663Z,3.43
2023-02-25T21:44:15.538Z,3.27
2023-02-25T21:46:43.609Z,4.50
2023-02-25T21:49:11.832Z,4.30
2023-02-25T21:51:40.205Z,4.23
2023-02-25T21:54:08.352Z,5.53
2023-02-25T21:56:37.543Z,5.00
2023-02-25T21:59:06.578Z,3.83
2023-02-25T22:01:36.171Z,4.73
2023-02-25T22:04:04.984Z,5.77
2023-02-25T22:06:33.233Z,5.73
2023-02-25T22:09:01.453Z,7.30
2023-02-25T22:11:30.946Z,5.33
2023-02-25T22:14:01.829Z,6.03
2023-02-25T22:16:30.200Z,5.00
2023-02-25T22:18:58.621Z,5.40
2023-02-25T22:21:28.234Z,5.60
2023-02-25T22:23:58.382Z,5.10
2023-02-25T22:26:28.063Z,6.43
2023-02-25T22:28:57.572Z,4.63
2023-02-25T22:31:27.884Z,3.77
2023-02-25T22:33:57.708Z,4.40
2023-02-25T22:36:26.323Z,4.33
2023-02-25T22:38:55.727Z,2.67
2023-02-25T22:41:25.524Z,3.70
2023-02-25T22:43:53.647Z,4.37
2023-02-25T22:46:25.440Z,4.20
2023-02-25T22:48:55.226Z,2.43
2023-02-25T22:51:27.062Z,2.93
2023-02-25T22:53:55.460Z,4.33
2023-02-25T22:56:24.696Z,6.97
2023-02-25T22:58:53.511Z,6.67
